createdAt,value
2019-01-05T00:01:25.819Z,7.55
2019-01-05T00:04:13.152Z,7.55
2019-01-05T00:06:59.888Z,7.57
2019-01-05T00:09:59.209Z,7.58
2019-01-05T00:12:58.871Z,7.56
2019-01-05T00:15:45.668Z,7.56
2019-01-05T00:18:32.182Z,7.54
2019-01-05T00:24:13.693Z,7.60
2019-01-05T00:27:01.995Z,7.58
2019-01-05T00:29:51.053Z,7.59
2019-01-05T00:32:59.466Z,7.58
2019-01-05T00:35:58.632Z,7.57
2019-01-05T00:38:49.278Z,7.59
2019-01-05T00:41:35.967Z,7.64
2019-01-05T00:44:26.946Z,7.61
2019-01-05T00:47:14.727Z,7.66
2019-01-05T00:50:01.472Z,7.60
2019-01-05T00:53:10.170Z,7.63
2019-01-05T00:55:56.378Z,7.59
2019-01-05T00:58:46.208Z,7.58
2019-01-05T01:01:40.650Z,7.59
2019-01-05T01:04:29.430Z,7.57
2019-01-05T01:07:20.857Z,7.60
2019-01-05T01:10:18.293Z,7.60
2019-01-05T01:13:20.787Z,7.60
2019-01-05T01:16:11.367Z,7.63
2019-01-05T01:18:54.446Z,7.64
2019-01-05T01:21:45.878Z,7.63
2019-01-05T01:24:29.381Z,7.64
2019-01-05T01:27:10.898Z,7.64
2019-01-05T01:29:52.086Z,7.68
2019-01-05T01:32:44.000Z,7.65
2019-01-05T01:35:32.177Z,7.66
2019-01-05T01:38:45.790Z,7.66
2019-01-05T01:41:38.321Z,7.63
2019-01-05T01:44:30.150Z,7.64
2019-01-05T01:47:23.184Z,7.67
2019-01-05T01:53:18.519Z,7.68
2019-01-05T01:56:11.873Z,7.66
2019-01-05T01:59:11.062Z,7.66
2019-01-05T02:02:08.843Z,7.69
2019-01-05T02:05:14.902Z,7.67
2019-01-05T02:07:58.921Z,7.68
2019-01-05T02:10:50.106Z,7.70
2019-01-05T02:13:44.018Z,7.70
2019-01-05T02:16:32.597Z,7.67
2019-01-05T02:19:45.402Z,7.67
2019-01-05T02:23:05.464Z,7.68
2019-01-05T02:26:24.454Z,7.67
2019-01-05T02:29:46.938Z,7.69
2019-01-05T02:33:15.570Z,7.68
2019-01-05T02:36:40.386Z,7.73
2019-01-05T02:39:55.862Z,7.71
2019-01-05T02:43:16.988Z,7.74
2019-01-05T02:47:01.423Z,7.72
2019-01-05T02:50:08.948Z,7.73
2019-01-05T02:53:45.779Z,7.75
2019-01-05T02:56:51.880Z,7.78
2019-01-05T03:00:31.922Z,7.80
2019-01-05T03:04:16.639Z,7.82
2019-01-05T03:07:33.078Z,7.83
2019-01-05T03:10:32.173Z,7.88
2019-01-05T03:14:02.477Z,7.89
2019-01-05T03:17:22.822Z,7.91
2019-01-05T03:20:51.614Z,7.91
2019-01-05T03:24:07.278Z,7.92
2019-01-05T03:27:45.939Z,7.92
2019-01-05T03:31:02.661Z,7.89
2019-01-05T03:34:55.178Z,7.89
2019-01-05T03:38:11.049Z,7.94
2019-01-05T03:42:05.090Z,7.90
2019-01-05T03:45:31.149Z,7.89
2019-01-05T03:48:51.982Z,7.89
2019-01-05T03:52:34.479Z,7.90
2019-01-05T03:55:50.945Z,7.93
2019-01-05T03:59:19.173Z,7.90
2019-01-05T04:03:01.059Z,7.89
2019-01-05T04:09:53.275Z,7.91
2019-01-05T04:13:07.148Z,7.91
2019-01-05T04:16:24.919Z,7.90
2019-01-05T04:20:10.624Z,7.92
2019-01-05T04:23:29.564Z,7.94
2019-01-05T04:27:19.535Z,7.93
2019-01-05T04:30:58.454Z,7.90
2019-01-05T04:34:56.059Z,7.93
2019-01-05T04:38:17.885Z,7.90
2019-01-05T04:41:40.598Z,7.93
2019-01-05T04:45:10.090Z,7.94
2019-01-05T04:48:42.430Z,7.95
2019-01-05T04:52:14.362Z,7.92
2019-01-05T04:55:51.211Z,7.94
2019-01-05T04:59:09.679Z,7.92
2019-01-05T05:02:56.509Z,7.93
2019-01-05T05:06:33.402Z,7.91
2019-01-05T05:10:09.320Z,7.90
2019-01-05T05:13:28.170Z,7.90
2019-01-05T05:16:40.907Z,7.87
2019-01-05T05:19:53.329Z,7.84
2019-01-05T05:23:27.424Z,7.85
2019-01-05T05:26:45.549Z,7.86
2019-01-05T05:30:14.246Z,7.88
2019-01-05T05:33:58.909Z,7.89
2019-01-05T05:37:34.286Z,7.85
2019-01-05T05:41:25.554Z,7.87
2019-01-05T05:45:03.059Z,7.87
2019-01-05T05:48:20.392Z,7.91
2019-01-05T05:51:51.240Z,7.88
2019-01-05T05:55:37.470Z,7.91
2019-01-05T05:58:59.296Z,7.88
2019-01-05T06:02:28.054Z,7.91
2019-01-05T06:06:24.964Z,7.91
2019-01-05T06:09:58.836Z,7.92
2019-01-05T06:13:36.901Z,7.94
2019-01-05T06:17:10.093Z,7.96
2019-01-05T06:20:32.538Z,7.96
2019-01-05T06:24:17.844Z,7.97
2019-01-05T06:27:41.331Z,7.96
2019-01-05T06:31:21.319Z,7.94
2019-01-05T06:34:49.930Z,7.92
2019-01-05T06:38:09.304Z,7.91
2019-01-05T06:41:58.935Z,7.92
2019-01-05T06:45:32.534Z,7.93
2019-01-05T06:49:08.069Z,7.95
2019-01-05T06:52:57.051Z,7.95
2019-01-05T06:56:14.491Z,7.94
2019-01-05T06:59:58.475Z,7.96
2019-01-05T07:03:43.861Z,7.93
2019-01-05T07:06:58.412Z,7.96
2019-01-05T07:10:15.577Z,7.93
2019-01-05T07:13:22.928Z,7.90
2019-01-05T07:17:05.889Z,7.95
2019-01-05T07:20:45.251Z,7.94
2019-01-05T07:24:14.958Z,7.94
2019-01-05T07:27:37.337Z,7.95
2019-01-05T07:31:17.835Z,7.95
2019-01-05T07:34:45.500Z,8.01
2019-01-05T07:38:26.703Z,7.96
2019-01-05T07:41:59.425Z,7.96
2019-01-05T07:45:10.887Z,7.95
2019-01-05T07:48:38.435Z,7.96
2019-01-05T07:52:01.483Z,7.97
2019-01-05T07:55:14.465Z,7.95
2019-01-05T07:58:56.894Z,7.97
2019-01-05T08:02:20.555Z,7.96
2019-01-05T08:05:34.931Z,7.98
2019-01-05T08:09:24.002Z,7.96
2019-01-05T08:12:56.227Z,7.97
2019-01-05T08:16:51.860Z,7.97
2019-01-05T08:20:31.416Z,7.96
2019-01-05T08:23:59.791Z,7.97
2019-01-05T08:27:26.870Z,8.01
2019-01-05T08:30:45.917Z,8.03
2019-01-05T08:34:12.353Z,8.00
2019-01-05T08:37:40.341Z,8.04
2019-01-05T08:41:23.006Z,8.02
2019-01-05T08:44:45.435Z,8.01
2019-01-05T08:48:07.109Z,8.02
2019-01-05T08:51:32.257Z,7.99
2019-01-05T08:54:54.440Z,8.00
2019-01-05T08:58:09.636Z,8.10
2019-01-05T09:01:42.556Z,8.07
2019-01-05T09:05:14.369Z,8.08
2019-01-05T09:08:54.661Z,8.09
2019-01-05T09:12:16.714Z,8.08
2019-01-05T09:16:08.761Z,8.10
2019-01-05T09:19:49.185Z,8.07
2019-01-05T09:23:13.125Z,8.10
2019-01-05T09:26:49.164Z,8.10
2019-01-05T09:30:15.343Z,8.13
2019-01-05T09:33:37.380Z,8.13
2019-01-05T09:37:15.345Z,8.14
2019-01-05T09:40:45.234Z,8.14
2019-01-05T09:44:14.355Z,8.16
2019-01-05T09:47:53.965Z,8.16
2019-01-05T09:51:39.057Z,8.21
2019-01-05T09:55:15.957Z,8.19
2019-01-05T09:58:36.026Z,8.21
2019-01-05T10:02:10.164Z,8.23
2019-01-05T10:05:40.797Z,8.26
2019-01-05T10:09:04.329Z,8.23
2019-01-05T10:12:43.039Z,8.25
2019-01-05T10:16:19.115Z,8.22
2019-01-05T10:20:05.721Z,8.25
2019-01-05T10:23:35.176Z,8.28
2019-01-05T10:27:19.839Z,8.30
2019-01-05T10:30:46.949Z,8.27
2019-01-05T10:34:23.000Z,8.30
2019-01-05T10:37:53.332Z,8.32
2019-01-05T10:41:28.354Z,8.34
2019-01-05T10:44:55.253Z,8.36
2019-01-05T10:48:45.459Z,8.35
2019-01-05T10:52:27.921Z,8.36
2019-01-05T10:56:05.895Z,8.37
2019-01-05T10:59:53.209Z,8.35
2019-01-05T11:03:20.621Z,8.37
2019-01-05T11:06:58.962Z,8.40
2019-01-05T11:10:12.306Z,8.44
2019-01-05T11:14:01.486Z,8.43
2019-01-05T11:17:33.735Z,8.41
2019-01-05T11:20:40.398Z,8.42
2019-01-05T11:23:53.273Z,8.41
2019-01-05T11:27:16.753Z,8.42
2019-01-05T11:31:12.137Z,8.41
2019-01-05T11:34:33.995Z,8.44
2019-01-05T11:37:56.188Z,8.48
2019-01-05T11:41:26.682Z,8.51
2019-01-05T11:45:06.959Z,8.50
2019-01-05T11:48:21.627Z,8.50
2019-01-05T11:52:02.093Z,8.53
2019-01-05T11:55:19.257Z,8.55
2019-01-05T11:58:58.801Z,8.63
2019-01-05T12:02:26.473Z,8.66
2019-01-05T12:05:56.827Z,8.71
2019-01-05T12:09:27.326Z,8.64
2019-01-05T12:12:54.212Z,8.65
2019-01-05T12:16:41.120Z,8.65
2019-01-05T12:20:39.757Z,8.70
2019-01-05T12:24:14.567Z,8.64
2019-01-05T12:27:38.187Z,8.63
2019-01-05T12:30:47.483Z,8.62
2019-01-05T12:34:08.348Z,8.64
2019-01-05T12:41:19.418Z,8.64
2019-01-05T12:44:38.657Z,8.66
2019-01-05T12:48:26.828Z,8.63
2019-01-05T12:52:21.741Z,8.64
2019-01-05T12:56:00.038Z,8.64
2019-01-05T13:03:11.754Z,8.68
2019-01-05T13:06:27.735Z,8.67
2019-01-05T13:09:49.593Z,8.69
2019-01-05T13:13:40.952Z,8.70
2019-01-05T13:17:27.447Z,8.73
2019-01-05T13:20:44.509Z,8.74
2019-01-05T13:24:08.009Z,8.74
2019-01-05T13:27:28.228Z,8.76
2019-01-05T13:30:46.360Z,8.84
2019-01-05T13:34:13.958Z,8.79
2019-01-05T13:37:32.455Z,8.73
2019-01-05T13:41:15.735Z,8.76
2019-01-05T13:44:56.579Z,8.75
2019-01-05T13:48:09.625Z,8.71
2019-01-05T13:51:18.631Z,8.71
2019-01-05T13:54:21.474Z,8.73
2019-01-05T13:57:15.375Z,8.69
2019-01-05T14:00:03.979Z,8.67
2019-01-05T14:02:54.705Z,8.66
2019-01-05T14:05:45.763Z,8.66
2019-01-05T14:08:32.762Z,8.67
2019-01-05T14:11:19.231Z,8.67
2019-01-05T14:14:13.922Z,8.70
2019-01-05T14:17:10.791Z,8.77
2019-01-05T14:20:01.878Z,8.71
2019-01-05T14:23:01.347Z,8.67
2019-01-05T14:25:55.441Z,8.65
2019-01-05T14:28:46.797Z,8.65
2019-01-05T14:31:35.064Z,8.66
2019-01-05T14:34:30.743Z,8.70
2019-01-05T14:37:21.691Z,8.67
2019-01-05T14:40:15.892Z,8.68
2019-01-05T14:43:02.780Z,8.68
2019-01-05T14:45:50.666Z,8.63
2019-01-05T14:48:50.597Z,8.62
2019-01-05T14:51:37.345Z,8.61
2019-01-05T14:54:23.958Z,8.63
2019-01-05T14:57:07.090Z,8.65
2019-01-05T14:59:55.540Z,8.66
2019-01-05T15:02:54.082Z,8.66
2019-01-05T15:05:54.150Z,8.67
2019-01-05T15:08:44.403Z,8.65
2019-01-05T15:11:30.918Z,8.67
2019-01-05T15:14:18.888Z,8.69
2019-01-05T15:17:41.225Z,8.66
2019-01-05T15:20:28.109Z,8.69
2019-01-05T15:23:16.397Z,8.71
2019-01-05T15:26:05.032Z,8.68
2019-01-05T15:28:55.761Z,8.71
2019-01-05T15:31:53.110Z,8.68
2019-01-05T15:34:39.822Z,8.66
2019-01-05T15:37:27.263Z,8.69
2019-01-05T15:40:18.286Z,8.69
2019-01-05T15:43:06.162Z,8.71
2019-01-05T15:45:50.544Z,8.71
2019-01-05T15:48:38.368Z,8.69
2019-01-05T15:51:26.694Z,8.73
2019-01-05T15:54:13.031Z,8.71
2019-01-05T15:56:59.654Z,8.70
2019-01-05T15:59:46.271Z,8.69
2019-01-05T16:02:40.279Z,8.70
2019-01-05T16:05:41.738Z,8.71
2019-01-05T16:08:28.556Z,8.68
2019-01-05T16:11:15.746Z,8.66
2019-01-05T16:14:02.559Z,8.65
2019-01-05T16:16:54.255Z,8.72
2019-01-05T16:19:40.806Z,8.68
2019-01-05T16:22:25.537Z,8.67
2019-01-05T16:25:12.270Z,8.65
2019-01-05T16:27:59.979Z,8.67
2019-01-05T16:30:46.729Z,8.64
2019-01-05T16:33:25.546Z,8.65
2019-01-05T16:36:13.098Z,8.65
2019-01-05T16:39:07.134Z,8.60
2019-01-05T16:41:53.703Z,8.62
2019-01-05T16:44:44.642Z,8.67
2019-01-05T16:47:31.922Z,8.65
2019-01-05T16:50:28.911Z,8.64
2019-01-05T16:53:12.824Z,8.64
2019-01-05T16:56:13.875Z,8.63
2019-01-05T16:58:55.103Z,8.64
2019-01-05T17:01:43.142Z,8.66
2019-01-05T17:04:31.250Z,8.65
2019-01-05T17:07:17.661Z,8.61
2019-01-05T17:10:11.556Z,8.66
2019-01-05T17:13:00.178Z,8.64
2019-01-05T17:15:48.208Z,8.62
2019-01-05T17:18:42.018Z,8.59
2019-01-05T17:21:28.754Z,8.56
2019-01-05T17:24:31.199Z,8.55
2019-01-05T17:27:17.600Z,8.56
2019-01-05T17:30:04.228Z,8.58
2019-01-05T17:33:10.794Z,8.57
2019-01-05T17:36:05.341Z,8.58
2019-01-05T17:38:53.342Z,8.57
2019-01-05T17:41:40.399Z,8.57
2019-01-05T17:44:26.025Z,8.59
2019-01-05T17:47:13.137Z,8.60
2019-01-05T17:50:19.411Z,8.60
2019-01-05T17:53:06.351Z,8.64
2019-01-05T17:55:53.542Z,8.66
2019-01-05T17:58:40.195Z,8.62
2019-01-05T18:01:28.325Z,8.55
2019-01-05T18:04:14.747Z,8.55
2019-01-05T18:07:01.408Z,8.56
2019-01-05T18:09:52.410Z,8.54
2019-01-05T18:12:45.052Z,8.49
2019-01-05T18:15:33.165Z,8.49
2019-01-05T18:18:19.554Z,8.52
2019-01-05T18:21:03.054Z,8.45
2019-01-05T18:23:50.355Z,8.45
2019-01-05T18:26:51.890Z,8.43
2019-01-05T18:29:38.255Z,8.45
2019-01-05T18:32:24.862Z,8.46
2019-01-05T18:35:07.885Z,8.47
2019-01-05T18:37:59.783Z,8.52
2019-01-05T18:40:48.435Z,8.50
2019-01-05T18:43:35.746Z,8.46
2019-01-05T18:46:25.617Z,8.44
2019-01-05T18:49:14.747Z,8.43
2019-01-05T18:52:13.077Z,8.42
2019-01-05T18:54:59.650Z,8.42
2019-01-05T18:57:46.459Z,8.42
2019-01-05T19:00:33.158Z,8.40
2019-01-05T19:03:23.054Z,8.39
2019-01-05T19:06:23.083Z,8.38
2019-01-05T19:09:25.621Z,8.38
2019-01-05T19:12:12.029Z,8.39
2019-01-05T19:14:58.964Z,8.36
2019-01-05T19:17:55.038Z,8.38
2019-01-05T19:20:48.855Z,8.38
2019-01-05T19:23:34.778Z,8.36
2019-01-05T19:26:22.421Z,8.36
2019-01-05T19:29:08.837Z,8.37
2019-01-05T19:32:08.319Z,8.35
2019-01-05T19:35:12.523Z,8.35
2019-01-05T19:38:09.476Z,8.35
2019-01-05T19:40:57.423Z,8.35
2019-01-05T19:43:43.982Z,8.36
2019-01-05T19:46:46.460Z,8.35
2019-01-05T19:49:25.567Z,8.31
2019-01-05T19:52:05.390Z,8.34
2019-01-05T19:54:52.151Z,8.32
2019-01-05T19:57:52.352Z,8.34
2019-01-05T20:00:57.390Z,8.29
2019-01-05T20:04:03.866Z,8.28
2019-01-05T20:06:50.970Z,8.25
2019-01-05T20:09:33.460Z,8.26
2019-01-05T20:12:27.491Z,8.29
2019-01-05T20:15:21.394Z,8.28
2019-01-05T20:18:13.453Z,8.26
2019-01-05T20:21:00.059Z,8.30
2019-01-05T20:23:52.488Z,8.30
2019-01-05T20:26:44.845Z,8.19
2019-01-05T20:30:25.078Z,8.09
2019-01-05T20:33:11.563Z,8.11
2019-01-05T20:35:56.806Z,8.13
2019-01-05T20:38:43.187Z,8.15
2019-01-05T20:41:46.265Z,8.15
2019-01-05T20:44:49.310Z,8.17
2019-01-05T20:47:35.651Z,8.22
2019-01-05T20:50:22.569Z,8.27
2019-01-05T20:53:08.668Z,8.23
2019-01-05T20:56:05.932Z,8.22
2019-01-05T20:59:03.203Z,8.18
2019-01-05T21:01:50.024Z,8.18
2019-01-05T21:04:38.808Z,8.16
2019-01-05T21:07:27.666Z,8.18
2019-01-05T21:10:14.436Z,8.25
2019-01-05T21:13:01.189Z,8.21
2019-01-05T21:15:51.682Z,8.23
2019-01-05T21:21:29.993Z,8.24
2019-01-05T21:24:16.499Z,8.20
2019-01-05T21:27:11.031Z,8.15
2019-01-05T21:29:59.897Z,8.17
2019-01-05T21:32:46.704Z,8.20
2019-01-05T21:35:32.804Z,8.14
2019-01-05T21:38:30.553Z,8.15
2019-01-05T21:41:20.921Z,8.14
2019-01-05T21:44:07.285Z,8.14
2019-01-05T21:46:55.211Z,8.01
2019-01-05T21:49:46.911Z,8.03
2019-01-05T21:52:41.055Z,8.04
2019-01-05T21:55:27.757Z,8.05
2019-01-05T21:58:05.727Z,8.06
2019-01-05T22:00:52.321Z,8.04
2019-01-05T22:03:43.674Z,7.91
2019-01-05T22:06:29.981Z,7.89
2019-01-05T22:09:24.635Z,7.90
2019-01-05T22:12:06.599Z,7.95
2019-01-05T22:14:51.735Z,7.93
2019-01-05T22:17:39.899Z,8.00
2019-01-05T22:20:34.157Z,7.99
2019-01-05T22:23:19.615Z,7.99
2019-01-05T22:26:25.513Z,8.01
2019-01-05T22:29:17.145Z,8.05
2019-01-05T22:32:05.951Z,8.06
2019-01-05T22:34:59.677Z,8.04
2019-01-05T22:38:02.203Z,8.02
2019-01-05T22:41:05.291Z,8.02
2019-01-05T22:44:05.053Z,7.94
2019-01-05T22:46:53.014Z,7.96
2019-01-05T22:49:46.733Z,7.97
2019-01-05T22:52:33.395Z,7.94
2019-01-05T22:55:20.260Z,7.91
2019-01-05T22:58:23.054Z,7.92
2019-01-05T23:01:12.260Z,7.89
2019-01-05T23:04:15.286Z,7.88
2019-01-05T23:07:02.037Z,7.88
2019-01-05T23:10:03.356Z,7.92
2019-01-05T23:12:54.117Z,7.86
2019-01-05T23:15:40.897Z,7.79
2019-01-05T23:18:47.145Z,7.78
2019-01-05T23:21:48.187Z,7.80
2019-01-05T23:24:34.217Z,7.80
2019-01-05T23:27:21.213Z,7.81
2019-01-05T23:30:11.122Z,7.78
2019-01-05T23:33:14.498Z,7.80
2019-01-05T23:36:02.788Z,7.82
2019-01-05T23:38:59.202Z,7.75
2019-01-05T23:41:53.307Z,7.74
2019-01-05T23:44:44.202Z,7.74
2019-01-05T23:47:30.541Z,7.71
2019-01-05T23:50:21.432Z,7.70
2019-01-05T23:53:04.965Z,7.71
2019-01-05T23:55:51.530Z,7.65
2019-01-05T23:58:47.705Z,7.66
